Terminal Aerodrome Forecast
Issued by NWS

Home | Current Version | Previous Version | Text Only | Print | Product List | Glossary On
Versions: 1 2 3 4 5 6 7 8 9 10 11 12 13 14 15 16 17 18 19 20 21 22 23 24 25 26 27 28
000
FTUS45 KGJT 260738 AAB
TAFASE
TAF AMD
KASE 260738Z 2608/2706 24003KT P6SM VCSH SCT021 BKN050 OVC060
     FM260900 21005KT P6SM FEW020 BKN080
     FM261100 22004KT P6SM BKN100
     FM261800 34005KT P6SM SCT150=

USA.gov is the U.S. government's official web portal to all federal, state and local government web resources and services.